Topsfield, Massachusetts
Current Conditions -  °F | °C
As of 10:53 PM on Wednesday 28 Jan 2015 (Local Time) from KBVY Reporting Station
Clear Clear  
Wind Chill:   Ceiling: Unl
Heat Index: 16°   Visibility: 10mi
Dew Point: -1°   Wind: 8mph
Humidity: 47%   Direction: 320°NW
Pressure: 30.2"   Gusts: NA
Location:  42.64°N, 70.95°W
Report Text: KBVY 290353Z AUTO 32007KT 10SM CLR M09/M18 A3020 RMK AO2 SLP226 T10891183
Loading
Personal Weather Stations






























Interactive Weather Map New forecast layout! Learn more

10-Day Weather Forecast

Advertisements
Track Severe Weather on mobile